Time;durP1;ratioP1;P1;durP2;ratioP2;P2;SDS_P1;SDS_P2;PMS_P1;PMS_P2;Temp;Humidity;BMP_temperature;BMP_pressure;BME280_temperature;BME280_humidity;BME280_pressure;Samples;Min_cycle;Max_cycle;Signal;HPM_P1;HPM_P2
2023/02/12 00:00:42;;;;;;;20.40;11.32;;;4.70;69.80;;;;;;2520204;53;21454;-85
2023/02/12 00:03:08;;;;;;;18.58;10.88;;;4.80;69.90;;;;;;2518951;53;21380;-84
2023/02/12 00:05:39;;;;;;;24.83;11.63;;;4.80;69.90;;;;;;2520674;53;20922;-84
2023/02/12 00:08:05;;;;;;;33.25;14.52;;;4.80;70.00;;;;;;2519942;53;21596;-84
2023/02/12 00:10:31;;;;;;;34.47;15.85;;;4.80;69.90;;;;;;2519547;53;20878;-85
2023/02/12 00:12:57;;;;;;;28.67;14.52;;;4.90;70.10;;;;;;2519317;53;20950;-84
2023/02/12 00:15:24;;;;;;;32.80;15.82;;;5.00;70.00;;;;;;2520218;53;20902;-85
2023/02/12 00:17:50;;;;;;;25.40;13.62;;;5.00;70.20;;;;;;2520088;53;21395;-84
2023/02/12 00:20:16;;;;;;;27.90;13.93;;;5.10;70.30;;;;;;2519200;53;20891;-84
2023/02/12 00:22:43;;;;;;;30.02;16.52;;;5.10;70.20;;;;;;2519900;53;21489;-84
2023/02/12 00:25:09;;;;;;;29.02;14.80;;;5.20;70.30;;;;;;2519862;53;21361;-85
2023/02/12 00:27:36;;;;;;;28.05;14.25;;;5.20;70.30;;;;;;2520345;54;20906;-83
2023/02/12 00:30:02;;;;;;;23.52;13.00;;;5.30;70.30;;;;;;2519913;53;20950;-85
2023/02/12 00:32:29;;;;;;;28.25;13.75;;;5.30;70.20;;;;;;2519543;54;20878;-83
2023/02/12 00:34:55;;;;;;;29.27;14.57;;;5.40;70.30;;;;;;2519873;53;20894;-83
2023/02/12 00:37:21;;;;;;;24.67;12.25;;;5.40;70.30;;;;;;2285734;54;20898;-84
2023/02/12 00:39:48;;;;;;;22.20;12.00;;;5.40;70.30;;;;;;2519946;53;21069;-84
2023/02/12 00:42:14;;;;;;;27.37;14.52;;;5.50;70.40;;;;;;2519250;53;20867;-85
2023/02/12 00:44:40;;;;;;;25.67;13.27;;;5.50;70.30;;;;;;2520180;53;20921;-84
2023/02/12 00:47:07;;;;;;;27.08;14.85;;;5.50;70.30;;;;;;2519461;53;21572;-84
2023/02/12 00:49:33;;;;;;;24.37;12.55;;;5.60;70.40;;;;;;2285972;54;21045;-84
2023/02/12 00:52:00;;;;;;;22.75;11.48;;;5.60;70.30;;;;;;2519557;53;21293;-84
2023/02/12 00:54:27;;;;;;;22.13;13.32;;;5.70;70.40;;;;;;2519678;54;21614;-84
2023/02/12 00:56:54;;;;;;;23.52;12.80;;;5.70;70.30;;;;;;2519767;53;20870;-84
2023/02/12 00:59:22;;;;;;;26.05;13.65;;;5.80;70.40;;;;;;2519238;54;21247;-85
2023/02/12 01:01:48;;;;;;;20.15;11.80;;;5.80;70.40;;;;;;2519745;53;20882;-83
2023/02/12 01:04:15;;;;;;;21.75;11.45;;;5.80;70.40;;;;;;2519624;54;21287;-85
2023/02/12 01:06:41;;;;;;;21.37;10.75;;;5.80;70.30;;;;;;2520031;53;22046;-84
2023/02/12 01:09:07;;;;;;;23.12;12.25;;;5.90;70.40;;;;;;2519334;53;20886;-86
2023/02/12 01:11:33;;;;;;;27.08;14.07;;;5.90;70.40;;;;;;2519981;53;20994;-85
2023/02/12 01:14:00;;;;;;;22.62;11.23;;;5.90;70.30;;;;;;2519898;53;21416;-84
2023/02/12 01:16:26;;;;;;;20.00;10.65;;;6.00;70.50;;;;;;2519110;54;20926;-84
2023/02/12 01:18:53;;;;;;;19.15;10.50;;;6.00;70.40;;;;;;2519127;53;21494;-84
2023/02/12 01:21:26;;;;;;;20.15;11.95;;;6.00;70.40;;;;;;2285717;54;21280;-84
2023/02/12 01:23:52;;;;;;;17.62;10.88;;;6.10;70.40;;;;;;2519883;54;20934;-85
2023/02/12 01:26:18;;;;;;;16.77;10.25;;;6.10;70.40;;;;;;2518805;53;20927;-84
2023/02/12 01:28:48;;;;;;;23.55;12.82;;;6.10;70.40;;;;;;2519697;53;20882;-85
2023/02/12 01:31:17;;;;;;;18.77;10.02;;;6.20;70.50;;;;;;2519260;54;20957;-85
2023/02/12 01:33:49;;;;;;;21.35;12.20;;;6.20;70.60;;;;;;2520004;54;20993;-84
2023/02/12 01:36:16;;;;;;;21.27;11.98;;;6.20;70.50;;;;;;2519793;54;20970;-83
2023/02/12 01:38:42;;;;;;;18.37;10.57;;;6.30;70.60;;;;;;2519632;54;20989;-84
2023/02/12 01:41:10;;;;;;;19.75;11.23;;;6.30;70.60;;;;;;2516792;54;21082;-83
2023/02/12 01:43:37;;;;;;;20.65;11.23;;;6.30;70.60;;;;;;2518996;54;20945;-84
2023/02/12 01:46:04;;;;;;;19.20;10.48;;;6.40;70.70;;;;;;2285258;54;21172;-83
2023/02/12 01:48:35;;;;;;;22.13;11.43;;;6.40;70.70;;;;;;2517518;54;20930;-83
2023/02/12 01:51:02;;;;;;;16.02;9.45;;;6.40;70.60;;;;;;2520190;54;21058;-83
2023/02/12 01:53:32;;;;;;;19.85;11.40;;;6.40;70.60;;;;;;2518157;54;21212;-85
2023/02/12 01:55:59;;;;;;;23.23;12.73;;;6.50;70.60;;;;;;2519275;54;21084;-85
2023/02/12 01:58:25;;;;;;;23.35;12.82;;;6.50;70.60;;;;;;2519047;54;20918;-85
2023/02/12 02:00:52;;;;;;;21.42;12.27;;;6.50;70.60;;;;;;2519393;53;21937;-85
2023/02/12 02:03:18;;;;;;;24.73;12.73;;;6.60;70.60;;;;;;2518431;54;20884;-85
2023/02/12 02:06:38;;;;;;;25.15;13.60;;;6.60;70.50;;;;;;2286163;54;21093;-84
2023/02/12 02:09:04;;;;;;;19.52;11.35;;;6.70;70.00;;;;;;2519409;54;22136;-84
2023/02/12 02:14:33;;;;;;;21.67;11.85;;;6.70;70.50;;;;;;2519020;54;20957;-84
2023/02/12 02:17:12;;;;;;;19.90;10.57;;;6.70;70.50;;;;;;2519993;53;20957;-84
2023/02/12 02:20:15;;;;;;;20.15;11.50;;;6.70;70.30;;;;;;2519532;53;21564;-84
2023/02/12 02:27:34;;;;;;;19.60;10.80;;;6.80;70.20;;;;;;2519099;54;20906;-84
2023/02/12 02:30:21;;;;;;;15.18;8.10;;;6.80;69.60;;;;;;2518600;54;21458;-84
2023/02/12 02:33:22;;;;;;;13.68;7.90;;;6.80;70.10;;;;;;2518992;54;21025;-85
2023/02/12 02:37:43;;;;;;;16.73;9.20;;;6.80;70.20;;;;;;2286233;54;21044;-84
2023/02/12 02:40:21;;;;;;;13.20;7.32;;;6.90;70.50;;;;;;2518103;54;21474;-85
2023/02/12 02:43:08;;;;;;;17.12;9.10;;;6.90;70.30;;;;;;2517617;54;20993;-84
2023/02/12 02:45:39;;;;;;;15.15;8.93;;;6.90;70.00;;;;;;2518545;54;21478;-85
2023/02/12 02:48:35;;;;;;;16.58;9.70;;;6.90;70.30;;;;;;2285096;54;20933;-85
2023/02/12 02:51:13;;;;;;;17.73;9.65;;;6.90;69.90;;;;;;2289286;54;20940;-84
2023/02/12 02:53:45;;;;;;;19.33;10.48;;;6.90;70.20;;;;;;2283656;54;21252;-85
2023/02/12 02:56:14;;;;;;;18.45;11.10;;;6.90;70.20;;;;;;2517775;53;21313;-84
2023/02/12 02:58:47;;;;;;;19.37;10.00;;;7.00;70.20;;;;;;2517858;54;20998;-84
2023/02/12 03:04:50;;;;;;;15.15;8.68;;;7.00;70.20;;;;;;2518074;54;20910;-84
2023/02/12 03:07:25;;;;;;;13.07;7.30;;;7.00;69.40;;;;;;2517456;53;21333;-84
2023/02/12 03:10:13;;;;;;;14.57;7.95;;;7.00;70.20;;;;;;2517833;54;21167;-85
2023/02/12 03:14:05;;;;;;;13.00;7.20;;;7.00;70.10;;;;;;2517578;54;20981;-84
2023/02/12 03:16:33;;;;;;;13.02;7.47;;;7.00;70.30;;;;;;2517274;54;20914;-84
2023/02/12 03:19:07;;;;;;;13.25;7.68;;;7.00;70.30;;;;;;2517223;54;20946;-84
2023/02/12 03:21:42;;;;;;;12.07;7.72;;;7.00;70.30;;;;;;2517791;53;20942;-84
2023/02/12 03:26:22;;;;;;;11.90;7.32;;;7.10;70.20;;;;;;2517856;54;21308;-84
2023/02/12 03:28:48;;;;;;;12.25;6.70;;;7.10;69.50;;;;;;2517794;54;21367;-84
2023/02/12 03:31:46;;;;;;;15.85;9.00;;;7.10;70.30;;;;;;2517352;54;20945;-85
2023/02/12 03:35:50;;;;;;;13.18;7.37;;;7.10;70.00;;;;;;2284652;54;20918;-84
2023/02/12 03:38:36;;;;;;;13.10;7.28;;;7.10;69.40;;;;;;2517119;54;21259;-85
2023/02/12 03:41:10;;;;;;;11.77;6.65;;;7.20;70.00;;;;;;2518521;54;20926;-84
2023/02/12 03:43:58;;;;;;;15.32;8.48;;;7.10;70.20;;;;;;2518498;54;20925;-84
2023/02/12 03:46:50;;;;;;;12.52;7.60;;;7.20;70.00;;;;;;2518573;54;20918;-85
2023/02/12 03:49:22;;;;;;;14.87;8.32;;;7.10;69.90;;;;;;2518617;54;22110;-84
2023/02/12 03:51:49;;;;;;;13.88;7.78;;;7.20;70.20;;;;;;2518721;54;22018;-85
2023/02/12 03:54:16;;;;;;;13.10;7.90;;;7.20;70.30;;;;;;2518817;54;21520;-84
2023/02/12 03:56:52;;;;;;;14.38;8.13;;;7.20;70.30;;;;;;2519017;54;20950;-84
2023/02/12 03:59:20;;;;;;;14.73;7.87;;;7.20;70.30;;;;;;2285458;54;20926;-85
2023/02/12 04:01:46;;;;;;;14.87;8.30;;;7.20;70.30;;;;;;2518810;54;20922;-85
2023/02/12 04:04:13;;;;;;;13.48;8.20;;;7.20;70.20;;;;;;2518710;54;20938;-84
2023/02/12 04:06:39;;;;;;;14.98;8.70;;;7.20;70.10;;;;;;2519435;54;20922;-85
2023/02/12 04:09:07;;;;;;;15.90;9.13;;;7.20;70.00;;;;;;2285301;54;20886;-84
2023/02/12 04:11:53;;;;;;;16.87;9.82;;;7.20;70.00;;;;;;2518823;54;20941;-84
2023/02/12 04:16:58;;;;;;;14.75;8.70;;;7.20;69.60;;;;;;2518778;54;20914;-85
2023/02/12 04:20:18;;;;;;;13.73;8.43;;;7.20;70.00;;;;;;2518509;54;20926;-84
2023/02/12 04:24:54;;;;;;;16.58;9.13;;;7.20;69.80;;;;;;2518889;54;20970;-84
2023/02/12 04:27:24;;;;;;;12.75;7.15;;;7.20;69.50;;;;;;2518774;54;21326;-84
2023/02/12 04:30:20;;;;;;;15.50;9.30;;;7.20;69.80;;;;;;2518901;54;21241;-84
2023/02/12 04:32:52;;;;;;;13.18;7.78;;;7.20;69.70;;;;;;2518394;54;20998;-84
2023/02/12 04:35:24;;;;;;;18.25;10.63;;;7.20;69.80;;;;;;2518425;54;20994;-85
2023/02/12 04:37:56;;;;;;;16.08;9.32;;;7.20;69.80;;;;;;2518878;54;20938;-84
2023/02/12 04:40:22;;;;;;;16.73;9.70;;;7.20;69.80;;;;;;2519143;54;20898;-84
2023/02/12 04:42:50;;;;;;;17.12;10.20;;;7.20;69.80;;;;;;2519111;53;21920;-84
2023/02/12 04:45:25;;;;;;;18.65;10.02;;;7.20;69.70;;;;;;2518866;54;21236;-84
2023/02/12 04:47:51;;;;;;;18.75;11.63;;;7.20;69.60;;;;;;2518819;54;20981;-85
2023/02/12 04:50:18;;;;;;;19.20;10.82;;;7.10;69.70;;;;;;2519195;54;21444;-84
2023/02/12 04:52:44;;;;;;;18.92;10.95;;;7.10;69.80;;;;;;2519482;54;20946;-85
2023/02/12 04:55:11;;;;;;;18.17;11.05;;;7.10;69.80;;;;;;2286512;54;20925;-84
2023/02/12 04:57:37;;;;;;;18.95;11.02;;;7.10;69.80;;;;;;2519678;54;21326;-85
2023/02/12 05:00:05;;;;;;;16.23;10.38;;;7.10;69.80;;;;;;2520210;53;21388;-84
2023/02/12 05:02:32;;;;;;;19.65;12.05;;;7.10;69.80;;;;;;2520146;53;20937;-84
2023/02/12 05:04:58;;;;;;;18.58;11.98;;;7.10;69.70;;;;;;2520257;54;21338;-85
2023/02/12 05:07:25;;;;;;;24.77;12.85;;;7.10;69.70;;;;;;2519590;54;21609;-85
2023/02/12 05:09:52;;;;;;;18.80;11.68;;;7.10;69.70;;;;;;2519128;54;21399;-84
2023/02/12 05:12:18;;;;;;;19.55;12.60;;;7.10;69.60;;;;;;2518620;54;21249;-84
2023/02/12 05:14:44;;;;;;;20.23;13.68;;;7.10;69.50;;;;;;2519088;54;20989;-84
2023/02/12 05:17:11;;;;;;;22.05;14.20;;;7.10;69.20;;;;;;2519231;54;20958;-84
2023/02/12 05:19:37;;;;;;;23.70;14.00;;;7.10;69.20;;;;;;2285732;54;20905;-85
2023/02/12 05:22:03;;;;;;;18.48;12.30;;;7.10;69.10;;;;;;2519378;54;21289;-84
2023/02/12 05:24:30;;;;;;;20.05;11.95;;;7.00;68.90;;;;;;2519143;53;20970;-85
2023/02/12 05:26:56;;;;;;;18.52;11.12;;;7.00;68.90;;;;;;2518596;54;20977;-84
2023/02/12 05:29:22;;;;;;;16.00;10.35;;;7.00;68.90;;;;;;2518649;54;20937;-84
2023/02/12 05:31:49;;;;;;;19.33;10.65;;;6.90;68.70;;;;;;2518444;54;21489;-84
2023/02/12 05:34:15;;;;;;;15.88;9.73;;;6.90;68.70;;;;;;2285848;54;20898;-84
2023/02/12 05:36:41;;;;;;;17.62;10.40;;;6.90;68.60;;;;;;2519285;54;20932;-84
2023/02/12 05:39:08;;;;;;;20.08;11.48;;;6.80;68.40;;;;;;2518804;54;20946;-84
2023/02/12 05:41:35;;;;;;;20.75;11.05;;;6.80;68.30;;;;;;2519231;54;20890;-84
2023/02/12 05:44:02;;;;;;;15.88;9.63;;;6.80;68.20;;;;;;2519015;54;20922;-84
2023/02/12 05:46:28;;;;;;;15.80;10.00;;;6.70;68.00;;;;;;2518978;53;21981;-84
2023/02/12 05:48:55;;;;;;;16.87;9.80;;;6.60;67.90;;;;;;2518560;54;21898;-84
2023/02/12 05:51:22;;;;;;;15.80;9.45;;;6.60;67.90;;;;;;2518966;54;20910;-83
2023/02/12 05:53:49;;;;;;;19.35;10.18;;;6.50;67.80;;;;;;2518079;54;20946;-84
2023/02/12 05:56:23;;;;;;;14.13;8.93;;;6.50;67.70;;;;;;2518390;54;20914;-85
2023/02/12 05:58:55;;;;;;;14.77;8.43;;;6.40;67.50;;;;;;2513369;53;21313;-84
2023/02/12 06:01:27;;;;;;;17.05;9.13;;;6.40;67.60;;;;;;2513179;53;20897;-83
2023/02/12 06:03:53;;;;;;;14.07;8.50;;;6.30;67.40;;;;;;2284947;54;20951;-83
2023/02/12 06:06:20;;;;;;;15.90;9.57;;;6.20;67.50;;;;;;2513204;54;20914;-84
2023/02/12 06:08:47;;;;;;;15.52;9.10;;;6.20;67.60;;;;;;2280420;54;21064;-84
2023/02/12 06:11:14;;;;;;;16.83;9.68;;;6.10;68.30;;;;;;2281166;54;20913;-85
2023/02/12 06:13:40;;;;;;;14.68;9.02;;;6.10;67.60;;;;;;2513867;54;20934;-85
2023/02/12 06:16:14;;;;;;;15.38;9.27;;;6.10;67.60;;;;;;2513683;54;20938;-83
2023/02/12 06:18:40;;;;;;;16.60;9.88;;;6.00;67.70;;;;;;2512700;53;20903;-84
2023/02/12 06:21:07;;;;;;;15.38;9.13;;;6.00;67.70;;;;;;2513615;53;21364;-83
2023/02/12 06:23:33;;;;;;;17.65;10.45;;;5.90;67.60;;;;;;2513537;54;20954;-84
2023/02/12 06:26:00;;;;;;;19.42;11.57;;;5.90;67.70;;;;;;2513433;54;21301;-84
2023/02/12 06:28:28;;;;;;;22.23;12.40;;;5.80;67.60;;;;;;2279601;54;21236;-84
2023/02/12 06:30:55;;;;;;;19.75;10.50;;;5.80;67.50;;;;;;2508566;53;20949;-85
2023/02/12 06:33:21;;;;;;;20.02;10.82;;;5.80;67.80;;;;;;2507556;54;20890;-84
2023/02/12 06:35:48;;;;;;;21.60;11.65;;;5.80;67.90;;;;;;2509443;54;20983;-85
2023/02/12 06:38:14;;;;;;;20.40;11.48;;;5.70;67.50;;;;;;2507785;54;21366;-85
2023/02/12 06:40:41;;;;;;;22.62;12.40;;;5.70;67.70;;;;;;2508157;53;21379;-85
2023/02/12 06:43:07;;;;;;;21.90;12.50;;;5.50;67.50;;;;;;2507956;53;21609;-84
2023/02/12 06:45:34;;;;;;;20.35;11.40;;;5.70;67.90;;;;;;2507916;54;21337;-84
2023/02/12 06:48:00;;;;;;;18.55;11.18;;;5.60;67.50;;;;;;2508596;53;20940;-85
2023/02/12 06:50:27;;;;;;;22.85;12.68;;;5.60;67.80;;;;;;2508089;52;21438;-85
2023/02/12 06:52:53;;;;;;;19.45;11.07;;;5.60;67.70;;;;;;2507764;53;20927;-84
2023/02/12 06:55:20;;;;;;;18.83;11.00;;;5.60;67.70;;;;;;2508523;53;22147;-85
2023/02/12 06:57:46;;;;;;;22.55;12.57;;;5.60;67.60;;;;;;2276231;54;21257;-84
2023/02/12 07:00:13;;;;;;;23.02;12.77;;;5.50;67.50;;;;;;2507759;54;21527;-85
2023/02/12 07:02:40;;;;;;;19.98;11.85;;;5.50;67.60;;;;;;2507899;54;21831;-84
2023/02/12 07:05:06;;;;;;;20.52;12.15;;;5.50;67.60;;;;;;2508672;54;21024;-84
2023/02/12 07:07:33;;;;;;;21.92;13.20;;;5.40;67.50;;;;;;2275518;54;21417;-84
2023/02/12 07:09:59;;;;;;;17.30;10.98;;;5.40;67.50;;;;;;2508680;54;21478;-84
2023/02/12 07:12:25;;;;;;;20.23;12.23;;;5.40;67.70;;;;;;2507319;54;21325;-85
2023/02/12 07:14:52;;;;;;;23.40;13.77;;;5.40;67.80;;;;;;2507543;54;20971;-83
2023/02/12 07:17:18;;;;;;;23.20;13.80;;;5.30;67.70;;;;;;2505665;54;21268;-84
2023/02/12 07:19:44;;;;;;;22.55;13.27;;;5.30;67.80;;;;;;2275901;54;21368;-86
2023/02/12 07:22:11;;;;;;;18.30;11.23;;;5.30;67.80;;;;;;2507681;54;21346;-85
2023/02/12 07:24:38;;;;;;;18.15;11.00;;;5.30;67.90;;;;;;2507248;54;20905;-85
2023/02/12 07:27:04;;;;;;;17.02;10.80;;;5.30;67.90;;;;;;2506106;54;21307;-85
2023/02/12 07:29:30;;;;;;;17.08;10.77;;;5.20;67.70;;;;;;2507512;53;20922;-85
2023/02/12 07:31:57;;;;;;;20.35;11.88;;;5.20;67.70;;;;;;2507511;53;21014;-84
2023/02/12 07:34:23;;;;;;;19.95;11.55;;;5.20;67.70;;;;;;2507643;54;20930;-84
2023/02/12 07:36:50;;;;;;;15.55;10.07;;;5.20;67.60;;;;;;2507200;54;21336;-84
2023/02/12 07:39:16;;;;;;;18.35;11.60;;;5.20;67.70;;;;;;2507726;53;20946;-84
2023/02/12 07:41:43;;;;;;;18.12;11.40;;;5.10;67.70;;;;;;2509167;53;21032;-84
2023/02/12 07:44:10;;;;;;;16.65;9.73;;;5.10;67.70;;;;;;2508147;54;21983;-84
2023/02/12 07:46:41;;;;;;;14.80;9.45;;;5.10;67.80;;;;;;2275742;54;21174;-85
2023/02/12 07:49:11;;;;;;;20.00;12.02;;;5.10;67.90;;;;;;2275549;54;21055;-84
2023/02/12 07:51:37;;;;;;;22.45;13.57;;;5.10;67.90;;;;;;2506746;54;20919;-83
2023/02/12 07:54:04;;;;;;;19.73;12.00;;;5.10;68.00;;;;;;2506120;54;21037;-84
2023/02/12 07:56:33;;;;;;;23.87;14.52;;;5.10;68.10;;;;;;2275866;54;21433;-85
2023/02/12 07:59:05;;;;;;;20.02;12.32;;;5.00;68.10;;;;;;2506225;54;21340;-85
2023/02/12 08:01:33;;;;;;;24.67;15.40;;;5.00;68.10;;;;;;2507159;54;21882;-84
2023/02/12 08:04:01;;;;;;;22.67;14.95;;;5.10;68.20;;;;;;2507299;54;21381;-84
2023/02/12 08:06:29;;;;;;;31.77;18.77;;;5.00;68.30;;;;;;2507206;53;20999;-86
2023/02/12 08:08:59;;;;;;;28.85;17.85;;;5.00;68.40;;;;;;2507940;54;21366;-84
2023/02/12 08:11:27;;;;;;;23.08;15.20;;;5.00;68.50;;;;;;2276292;54;20909;-85
2023/02/12 08:13:54;;;;;;;26.20;16.87;;;5.00;68.70;;;;;;2509411;53;20902;-85
2023/02/12 08:16:22;;;;;;;26.48;17.05;;;5.10;68.90;;;;;;2509191;53;21338;-85
2023/02/12 08:18:48;;;;;;;23.77;15.27;;;5.10;69.00;;;;;;2508334;53;21309;-84
2023/02/12 08:21:19;;;;;;;24.55;14.93;;;5.10;69.10;;;;;;2508593;53;21065;-84
2023/02/12 08:23:48;;;;;;;23.73;14.63;;;5.10;69.20;;;;;;2506872;53;20925;-84
2023/02/12 08:26:23;;;;;;;24.85;15.82;;;5.10;69.30;;;;;;2275944;54;20930;-84
2023/02/12 08:29:01;;;;;;;26.25;16.25;;;5.20;69.50;;;;;;2506590;54;21838;-83
2023/02/12 08:31:31;;;;;;;29.00;17.92;;;5.20;69.60;;;;;;2508617;53;21822;-84
2023/02/12 08:33:58;;;;;;;27.08;16.20;;;5.20;69.60;;;;;;2275693;54;20910;-83
2023/02/12 08:36:46;;;;;;;29.63;18.42;;;5.30;69.80;;;;;;2508100;53;21423;-83
2023/02/12 08:39:13;;;;;;;27.17;16.60;;;5.30;69.70;;;;;;2507952;53;21428;-84
2023/02/12 08:41:41;;;;;;;27.85;17.37;;;5.30;70.50;;;;;;2507474;54;21452;-83
2023/02/12 08:44:07;;;;;;;31.27;18.42;;;5.40;69.90;;;;;;2275475;54;20909;-85
2023/02/12 08:46:35;;;;;;;37.30;21.33;;;5.50;70.10;;;;;;2508398;54;20925;-84
2023/02/12 08:49:06;;;;;;;30.67;19.15;;;5.40;70.10;;;;;;2507773;53;20898;-85
2023/02/12 08:51:34;;;;;;;30.17;18.17;;;5.50;70.30;;;;;;2509954;53;21046;-84
2023/02/12 08:54:02;;;;;;;26.62;17.85;;;5.50;70.30;;;;;;2507924;52;21991;-85
2023/02/12 08:56:29;;;;;;;27.33;17.83;;;5.70;70.50;;;;;;2275527;54;20982;-85
2023/02/12 08:58:56;;;;;;;26.08;16.50;;;5.60;70.40;;;;;;2507622;53;21429;-84
2023/02/12 09:01:24;;;;;;;36.10;21.20;;;5.70;70.60;;;;;;2508844;54;20914;-84
2023/02/12 09:03:50;;;;;;;34.20;20.12;;;5.70;70.60;;;;;;2509835;52;21007;-85
2023/02/12 09:06:18;;;;;;;28.27;18.45;;;5.70;70.50;;;;;;2276402;54;20927;-85
2023/02/12 09:08:44;;;;;;;26.02;16.83;;;5.80;70.80;;;;;;2509095;53;22029;-85
2023/02/12 09:11:15;;;;;;;24.87;16.20;;;5.90;70.90;;;;;;2509379;53;20894;-84
2023/02/12 09:13:41;;;;;;;26.52;16.62;;;5.90;71.10;;;;;;2276607;54;20922;-85
2023/02/12 09:16:08;;;;;;;24.85;15.40;;;6.00;71.20;;;;;;2508913;53;20993;-85
2023/02/12 09:18:35;;;;;;;19.10;12.60;;;6.10;71.40;;;;;;2509037;53;20922;-83
2023/02/12 09:21:03;;;;;;;19.85;13.30;;;6.10;71.50;;;;;;2508274;54;20926;-86
2023/02/12 09:23:29;;;;;;;19.25;11.80;;;6.00;71.40;;;;;;2508744;54;21029;-85
2023/02/12 09:25:56;;;;;;;19.48;12.70;;;6.20;71.70;;;;;;2508058;53;20926;-85
2023/02/12 09:28:23;;;;;;;24.40;14.57;;;6.40;71.90;;;;;;2276329;54;22018;-85
2023/02/12 09:30:50;;;;;;;24.08;15.70;;;6.40;71.80;;;;;;2276393;54;20890;-84
2023/02/12 09:33:16;;;;;;;22.37;13.35;;;6.50;72.20;;;;;;2507850;53;22543;-84
2023/02/12 09:35:42;;;;;;;22.90;14.77;;;6.60;72.40;;;;;;2509278;53;21041;-85
2023/02/12 09:38:09;;;;;;;26.15;16.25;;;6.80;72.70;;;;;;2508529;54;20950;-84
2023/02/12 09:43:43;;;;;;;21.00;14.32;;;6.90;73.10;;;;;;2508847;53;20910;-86
2023/02/12 09:46:32;;;;;;;17.70;11.93;;;7.10;72.90;;;;;;2507160;53;20922;-85
2023/02/12 09:52:21;;;;;;;18.58;11.60;;;7.30;74.20;;;;;;2507518;54;21883;-85
2023/02/12 09:54:47;;;;;;;14.95;9.20;;;7.60;74.10;;;;;;2507849;54;20943;-84
2023/02/12 09:57:34;;;;;;;15.57;10.20;;;7.80;75.10;;;;;;2508068;54;21029;-83
2023/02/12 10:00:08;;;;;;;16.75;11.77;;;7.90;74.80;;;;;;2507618;54;20961;-85
2023/02/12 10:02:36;;;;;;;20.42;13.48;;;8.10;75.10;;;;;;2507971;54;21053;-85
2023/02/12 10:05:03;;;;;;;23.10;15.82;;;8.20;75.40;;;;;;2507546;54;20926;-84
2023/02/12 10:08:02;;;;;;;21.25;15.15;;;8.40;76.10;;;;;;2276733;54;21994;-86
2023/02/12 10:10:59;;;;;;;20.80;13.73;;;8.60;76.60;;;;;;2508147;54;20945;-84
2023/02/12 10:16:43;;;;;;;17.50;12.35;;;8.80;76.50;;;;;;2508408;53;21982;-85
2023/02/12 10:20:46;;;;;;;16.55;10.48;;;9.00;76.40;;;;;;2508621;54;20971;-84
2023/02/12 10:23:51;;;;;;;13.23;8.68;;;9.40;75.10;;;;;;2509756;54;20928;-85
2023/02/12 10:26:29;;;;;;;16.92;11.45;;;9.60;75.70;;;;;;2509711;54;20922;-85
2023/02/12 10:28:58;;;;;;;15.48;10.35;;;9.70;76.20;;;;;;2508918;54;21000;-85
2023/02/12 10:31:29;;;;;;;16.92;12.10;;;9.80;76.10;;;;;;2508326;54;20914;-85
2023/02/12 10:33:56;;;;;;;18.25;12.25;;;10.00;75.10;;;;;;2508159;54;20925;-85
2023/02/12 10:36:58;;;;;;;17.65;12.82;;;10.10;75.40;;;;;;2508553;54;22207;-86
2023/02/12 10:39:26;;;;;;;18.77;13.25;;;10.20;74.30;;;;;;2508942;54;20950;-85
2023/02/12 10:42:00;;;;;;;19.58;12.98;;;10.30;75.00;;;;;;2508877;54;22338;-86
2023/02/12 10:44:27;;;;;;;20.75;13.80;;;10.50;74.70;;;;;;2502947;54;21029;-85
2023/02/12 10:46:53;;;;;;;19.37;12.35;;;10.60;74.80;;;;;;2501015;54;21040;-85
2023/02/12 10:49:20;;;;;;;19.65;13.20;;;10.70;74.90;;;;;;2508831;54;20936;-84
2023/02/12 10:53:23;;;;;;;18.90;12.77;;;10.70;74.70;;;;;;2510974;54;20918;-85
2023/02/12 10:56:03;;;;;;;14.75;10.35;;;11.00;73.50;;;;;;2509887;53;20886;-86
2023/02/12 10:58:30;;;;;;;17.08;11.45;;;11.00;74.50;;;;;;2510097;54;21348;-85
2023/02/12 11:00:57;;;;;;;13.75;9.63;;;11.10;74.50;;;;;;2509498;54;21650;-85
2023/02/12 11:03:27;;;;;;;14.30;10.07;;;11.20;74.50;;;;;;2509029;53;20950;-86
2023/02/12 11:05:54;;;;;;;14.23;9.70;;;11.30;74.30;;;;;;2509654;54;20985;-85
2023/02/12 11:08:32;;;;;;;14.98;9.95;;;11.40;74.60;;;;;;2509603;54;21045;-84
2023/02/12 11:11:19;;;;;;;15.23;9.93;;;11.50;74.10;;;;;;2509472;54;21085;-85
2023/02/12 11:13:47;;;;;;;13.23;8.95;;;11.60;74.10;;;;;;2508910;54;21586;-85
2023/02/12 11:16:23;;;;;;;15.75;10.27;;;11.70;74.60;;;;;;2509301;54;21017;-85
2023/02/12 11:18:57;;;;;;;12.32;9.05;;;11.80;74.70;;;;;;2509478;54;21022;-85
2023/02/12 11:21:23;;;;;;;10.45;7.65;;;11.90;74.40;;;;;;2509265;54;20918;-86
2023/02/12 11:23:50;;;;;;;11.52;7.35;;;12.00;74.90;;;;;;2509178;54;21960;-85
2023/02/12 11:26:34;;;;;;;11.02;7.80;;;12.10;75.00;;;;;;2509954;52;22054;-85
2023/02/12 11:29:17;;;;;;;10.55;7.20;;;12.20;74.20;;;;;;2278231;54;20902;-85
2023/02/12 11:31:58;;;;;;;9.82;7.00;;;12.30;74.90;;;;;;2510987;53;20937;-85
2023/02/12 11:34:25;;;;;;;9.75;6.28;;;12.40;74.90;;;;;;2510362;54;20945;-85
2023/02/12 11:36:52;;;;;;;9.50;6.65;;;12.50;74.90;;;;;;2511222;54;20890;-84
2023/02/12 11:39:37;;;;;;;9.90;6.53;;;12.60;75.00;;;;;;2278777;54;20878;-85
2023/02/12 11:42:18;;;;;;;12.75;8.05;;;12.80;74.20;;;;;;2511565;54;21001;-84
2023/02/12 11:44:52;;;;;;;10.55;7.07;;;12.80;74.30;;;;;;2511932;53;22034;-85
2023/02/12 11:47:21;;;;;;;10.65;7.30;;;12.90;74.50;;;;;;2278327;54;20997;-85
2023/02/12 11:50:02;;;;;;;11.68;7.72;;;13.00;74.50;;;;;;2510577;54;20918;-85
2023/02/12 11:52:31;;;;;;;11.48;7.93;;;13.00;73.80;;;;;;2509899;54;21001;-84
2023/02/12 11:55:02;;;;;;;11.02;7.00;;;13.10;73.90;;;;;;2509626;54;20918;-85
2023/02/12 11:57:48;;;;;;;10.68;7.35;;;13.20;73.50;;;;;;2508855;54;20973;-84
2023/02/12 12:00:39;;;;;;;10.48;7.00;;;13.30;72.70;;;;;;2508557;54;21962;-86
2023/02/12 12:03:20;;;;;;;7.60;5.53;;;13.30;72.60;;;;;;2508115;54;20942;-85
2023/02/12 12:06:04;;;;;;;10.07;6.25;;;13.40;73.10;;;;;;2508825;54;20921;-85
2023/02/12 12:08:50;;;;;;;8.80;6.07;;;13.40;72.90;;;;;;2509017;54;21019;-85
2023/02/12 12:11:25;;;;;;;8.70;6.07;;;13.50;72.60;;;;;;2508719;54;20951;-85
2023/02/12 12:14:05;;;;;;;11.68;6.45;;;13.50;73.30;;;;;;2508228;54;21065;-84
2023/02/12 12:19:58;;;;;;;9.35;6.07;;;13.60;73.10;;;;;;2508584;54;20937;-86
2023/02/12 12:22:52;;;;;;;10.23;6.75;;;13.70;72.60;;;;;;2507846;54;22205;-84
2023/02/12 12:25:30;;;;;;;9.52;6.57;;;13.80;72.60;;;;;;2508462;54;20981;-86
2023/02/12 12:34:49;;;;;;;9.02;5.62;;;13.80;73.20;;;;;;2508575;54;20937;-85
2023/02/12 12:39:20;;;;;;;8.27;5.10;;;13.80;73.10;;;;;;2508390;54;21009;-85
2023/02/12 12:43:12;;;;;;;7.10;4.68;;;14.00;72.60;;;;;;2508465;54;20918;-86
2023/02/12 12:51:06;;;;;;;6.97;4.70;;;14.10;72.10;;;;;;2508877;54;21573;-86
2023/02/12 13:00:26;;;;;;;7.82;5.00;;;14.00;72.40;;;;;;2509143;54;20959;-85
2023/02/12 13:03:26;;;;;;;7.03;4.50;;;14.30;72.60;;;;;;2508284;54;20933;-86
2023/02/12 13:09:51;;;;;;;8.85;5.90;;;14.40;72.30;;;;;;2508240;54;21995;-85
2023/02/12 13:12:39;;;;;;;7.60;5.75;;;14.50;72.30;;;;;;2508288;54;20950;-85
2023/02/12 13:15:33;;;;;;;8.73;6.15;;;14.40;72.30;;;;;;2508548;54;21527;-85
2023/02/12 13:21:41;;;;;;;8.55;5.70;;;14.50;71.90;;;;;;2508290;54;20977;-85
2023/02/12 13:24:53;;;;;;;6.70;4.65;;;14.50;72.30;;;;;;2508171;54;20922;-86
2023/02/12 13:27:24;;;;;;;8.57;5.43;;;14.60;72.50;;;;;;2508363;54;21085;-85
2023/02/12 13:30:16;;;;;;;8.20;5.85;;;14.60;73.30;;;;;;2508208;54;21021;-84
2023/02/12 13:32:58;;;;;;;8.43;5.93;;;14.70;72.60;;;;;;2508902;54;22126;-86
2023/02/12 13:35:24;;;;;;;9.20;5.90;;;14.70;72.60;;;;;;2509029;54;21562;-85
2023/02/12 13:37:52;;;;;;;8.52;5.78;;;14.80;73.40;;;;;;2508681;54;20913;-84
2023/02/12 13:40:23;;;;;;;8.35;5.40;;;14.80;73.20;;;;;;2508630;53;20918;-86
2023/02/12 13:44:31;;;;;;;8.02;5.03;;;14.80;73.00;;;;;;2508398;53;20910;-85
2023/02/12 13:49:45;;;;;;;7.75;4.80;;;14.90;72.30;;;;;;2276502;54;20906;-84
2023/02/12 13:52:24;;;;;;;5.87;3.73;;;14.90;72.10;;;;;;2509221;54;20914;-85
2023/02/12 13:55:45;;;;;;;6.93;4.32;;;14.90;72.70;;;;;;2509490;53;21540;-86
2023/02/12 14:05:00;;;;;;;5.60;3.87;;;15.10;71.10;;;;;;2276138;54;20922;-85
2023/02/12 14:08:04;;;;;;;4.90;2.70;;;15.20;71.80;;;;;;2508969;54;22010;-84
2023/02/12 14:10:35;;;;;;;4.90;3.20;;;15.20;71.90;;;;;;2508957;54;21084;-86
2023/02/12 14:14:03;;;;;;;4.68;3.25;;;15.20;72.60;;;;;;2509088;53;20914;-85
2023/02/12 14:16:39;;;;;;;4.90;3.17;;;15.20;70.90;;;;;;2509356;53;20914;-85
2023/02/12 14:19:42;;;;;;;4.95;2.72;;;15.30;72.20;;;;;;2509092;53;20949;-86
2023/02/12 14:22:13;;;;;;;5.32;3.15;;;15.30;71.50;;;;;;2509133;53;21100;-85
2023/02/12 14:24:48;;;;;;;5.00;2.62;;;15.30;72.50;;;;;;2509964;53;22324;-84